sensor_id;sensor_type;location;lat;lon;timestamp;pressure;altitude;pressure_sealevel;temperature;humidity
72961;BME280;61141;46.204;19.774;2023-05-21T00:00:38;100442.91;;;15.21;96.55
72961;BME280;61141;46.204;19.774;2023-05-21T00:03:42;100465.78;;;15.18;97.35
72961;BME280;61141;46.204;19.774;2023-05-21T00:06:47;100457.53;;;14.94;98.19
72961;BME280;61141;46.204;19.774;2023-05-21T00:09:50;100449.25;;;14.87;98.46
72961;BME280;61141;46.204;19.774;2023-05-21T00:12:54;100460.31;;;14.94;98.26
72961;BME280;61141;46.204;19.774;2023-05-21T00:15:57;100452.81;;;14.84;98.33
72961;BME280;61141;46.204;19.774;2023-05-21T00:18:59;100463.84;;;14.87;98.50
72961;BME280;61141;46.204;19.774;2023-05-21T00:22:04;100460.31;;;14.80;98.85
72961;BME280;61141;46.204;19.774;2023-05-21T00:25:07;100458.31;;;14.84;98.89
72961;BME280;61141;46.204;19.774;2023-05-21T00:28:11;100437.03;;;14.81;98.56
72961;BME280;61141;46.204;19.774;2023-05-21T00:31:13;100453.63;;;14.77;98.80
72961;BME280;61141;46.204;19.774;2023-05-21T00:34:17;100453.59;;;14.84;98.45
72961;BME280;61141;46.204;19.774;2023-05-21T00:37:20;100451.63;;;14.85;98.59
72961;BME280;61141;46.204;19.774;2023-05-21T00:40:23;100448.47;;;14.90;98.11
72961;BME280;61141;46.204;19.774;2023-05-21T00:43:26;100452.00;;;14.83;98.41
72961;BME280;61141;46.204;19.774;2023-05-21T00:46:29;100436.66;;;14.75;98.19
72961;BME280;61141;46.204;19.774;2023-05-21T00:49:32;100451.22;;;14.72;98.83
72961;BME280;61141;46.204;19.774;2023-05-21T00:52:35;100437.84;;;14.53;99.04
72961;BME280;61141;46.204;19.774;2023-05-21T00:55:44;100446.91;;;14.53;99.66
72961;BME280;61141;46.204;19.774;2023-05-21T00:58:48;100441.78;;;14.55;99.53
72961;BME280;61141;46.204;19.774;2023-05-21T01:01:54;100415.41;;;14.47;99.65
72961;BME280;61141;46.204;19.774;2023-05-21T01:04:58;100424.06;;;14.49;99.61
72961;BME280;61141;46.204;19.774;2023-05-21T01:08:02;100431.94;;;14.47;99.45
72961;BME280;61141;46.204;19.774;2023-05-21T01:11:07;100427.22;;;14.58;99.37
72961;BME280;61141;46.204;19.774;2023-05-21T01:14:11;100426.44;;;14.54;99.62
72961;BME280;61141;46.204;19.774;2023-05-21T01:17:15;100403.22;;;14.41;99.15
72961;BME280;61141;46.204;19.774;2023-05-21T01:20:19;100429.19;;;14.58;99.26
72961;BME280;61141;46.204;19.774;2023-05-21T01:23:22;100413.84;;;14.36;100.00
72961;BME280;61141;46.204;19.774;2023-05-21T01:26:25;100412.97;;;14.18;100.00
72961;BME280;61141;46.204;19.774;2023-05-21T01:29:30;100414.94;;;14.17;100.00
72961;BME280;61141;46.204;19.774;2023-05-21T01:32:51;100419.28;;;14.11;100.00
72961;BME280;61141;46.204;19.774;2023-05-21T01:36:04;100415.38;;;14.19;100.00
72961;BME280;61141;46.204;19.774;2023-05-21T01:39:19;100417.75;;;14.28;100.00
72961;BME280;61141;46.204;19.774;2023-05-21T01:42:24;100410.28;;;14.35;100.00
72961;BME280;61141;46.204;19.774;2023-05-21T01:45:30;100400.84;;;14.33;100.00
72961;BME280;61141;46.204;19.774;2023-05-21T01:48:33;100393.34;;;14.37;100.00
72961;BME280;61141;46.204;19.774;2023-05-21T01:51:37;100402.75;;;14.25;100.00
72961;BME280;61141;46.204;19.774;2023-05-21T01:54:41;100393.28;;;14.01;100.00
72961;BME280;61141;46.204;19.774;2023-05-21T01:57:44;100401.50;;;13.87;100.00
72961;BME280;61141;46.204;19.774;2023-05-21T02:00:47;100401.12;;;13.85;100.00
72961;BME280;61141;46.204;19.774;2023-05-21T02:03:52;100404.25;;;13.84;100.00
72961;BME280;61141;46.204;19.774;2023-05-21T02:06:55;100392.50;;;14.01;100.00
72961;BME280;61141;46.204;19.774;2023-05-21T02:09:58;100381.88;;;14.03;100.00
72961;BME280;61141;46.204;19.774;2023-05-21T02:13:01;100390.16;;;13.99;100.00
72961;BME280;61141;46.204;19.774;2023-05-21T02:16:04;100390.50;;;13.91;100.00
72961;BME280;61141;46.204;19.774;2023-05-21T02:19:07;100387.72;;;13.77;100.00
72961;BME280;61141;46.204;19.774;2023-05-21T02:22:12;100386.13;;;13.69;100.00
72961;BME280;61141;46.204;19.774;2023-05-21T02:25:16;100384.53;;;13.61;100.00
72961;BME280;61141;46.204;19.774;2023-05-21T02:28:20;100382.94;;;13.52;100.00
72961;BME280;61141;46.204;19.774;2023-05-21T02:31:22;100370.28;;;13.37;100.00
72961;BME280;61141;46.204;19.774;2023-05-21T02:34:25;100381.69;;;13.39;100.00
72961;BME280;61141;46.204;19.774;2023-05-21T02:37:29;100382.91;;;13.42;100.00
72961;BME280;61141;46.204;19.774;2023-05-21T02:40:35;100386.50;;;13.53;100.00
72961;BME280;61141;46.204;19.774;2023-05-21T02:43:38;100385.75;;;13.77;100.00
72961;BME280;61141;46.204;19.774;2023-05-21T02:46:41;100398.34;;;13.75;100.00
72961;BME280;61141;46.204;19.774;2023-05-21T02:49:45;100386.94;;;13.76;100.00
72961;BME280;61141;46.204;19.774;2023-05-21T02:52:48;100368.03;;;13.61;100.00
72961;BME280;61141;46.204;19.774;2023-05-21T02:55:51;100360.84;;;13.28;100.00
72961;BME280;61141;46.204;19.774;2023-05-21T02:58:54;100386.00;;;13.33;100.00
72961;BME280;61141;46.204;19.774;2023-05-21T03:01:56;100391.53;;;13.40;100.00
72961;BME280;61141;46.204;19.774;2023-05-21T03:04:59;100405.44;;;13.72;100.00
72961;BME280;61141;46.204;19.774;2023-05-21T03:08:02;100402.69;;;13.79;100.00
72961;BME280;61141;46.204;19.774;2023-05-21T03:11:05;100390.88;;;13.75;100.00
72961;BME280;61141;46.204;19.774;2023-05-21T03:14:08;100394.81;;;13.74;100.00
72961;BME280;61141;46.204;19.774;2023-05-21T03:17:11;100394.75;;;13.67;100.00
72961;BME280;61141;46.204;19.774;2023-05-21T03:20:18;100389.28;;;13.64;100.00
72961;BME280;61141;46.204;19.774;2023-05-21T03:23:22;100401.09;;;13.75;100.00
72961;BME280;61141;46.204;19.774;2023-05-21T03:26:25;100394.84;;;13.88;100.00
72961;BME280;61141;46.204;19.774;2023-05-21T03:29:32;100381.41;;;13.69;100.00
72961;BME280;61141;46.204;19.774;2023-05-21T03:32:35;100392.41;;;13.73;100.00
72961;BME280;61141;46.204;19.774;2023-05-21T03:35:40;100392.06;;;13.74;100.00
72961;BME280;61141;46.204;19.774;2023-05-21T03:38:43;100400.34;;;13.92;100.00
72961;BME280;61141;46.204;19.774;2023-05-21T03:41:46;100390.88;;;13.89;100.00
72961;BME280;61141;46.204;19.774;2023-05-21T03:44:49;100379.91;;;14.00;99.99
72961;BME280;61141;46.204;19.774;2023-05-21T03:47:53;100401.56;;;13.94;100.00
72961;BME280;61141;46.204;19.774;2023-05-21T03:50:56;100405.44;;;13.83;100.00
72961;BME280;61141;46.204;19.774;2023-05-21T03:53:59;100400.34;;;13.92;100.00
72961;BME280;61141;46.204;19.774;2023-05-21T03:57:03;100405.06;;;13.95;100.00
72961;BME280;61141;46.204;19.774;2023-05-21T04:00:07;100399.97;;;14.04;100.00
72961;BME280;61141;46.204;19.774;2023-05-21T04:03:16;100401.19;;;14.31;98.74
72961;BME280;61141;46.204;19.774;2023-05-21T04:06:20;100406.75;;;14.45;98.13
72961;BME280;61141;46.204;19.774;2023-05-21T04:09:23;100411.84;;;14.64;97.10
72961;BME280;61141;46.204;19.774;2023-05-21T04:12:26;100409.50;;;14.74;96.23
72961;BME280;61141;46.204;19.774;2023-05-21T04:15:29;100409.06;;;14.89;95.81
72961;BME280;61141;46.204;19.774;2023-05-21T04:18:32;100413.78;;;14.99;94.78
72961;BME280;61141;46.204;19.774;2023-05-21T04:21:35;100422.81;;;15.17;94.34
72961;BME280;61141;46.204;19.774;2023-05-21T04:24:39;100428.28;;;15.28;94.10
72961;BME280;61141;46.204;19.774;2023-05-21T04:27:42;100430.22;;;15.52;92.74
72961;BME280;61141;46.204;19.774;2023-05-21T04:30:49;100439.59;;;15.72;93.93
72961;BME280;61141;46.204;19.774;2023-05-21T04:33:54;100443.09;;;15.83;93.00
72961;BME280;61141;46.204;19.774;2023-05-21T04:36:57;100442.22;;;16.04;91.01
72961;BME280;61141;46.204;19.774;2023-05-21T04:40:00;100446.53;;;16.09;90.32
72961;BME280;61141;46.204;19.774;2023-05-21T04:43:04;100449.19;;;16.23;89.96
72961;BME280;61141;46.204;19.774;2023-05-21T04:46:07;100454.22;;;16.35;89.81
72961;BME280;61141;46.204;19.774;2023-05-21T04:49:10;100449.19;;;16.26;89.75
72961;BME280;61141;46.204;19.774;2023-05-21T04:52:13;100449.41;;;16.46;89.55
72961;BME280;61141;46.204;19.774;2023-05-21T04:55:16;100450.75;;;16.82;87.72
72961;BME280;61141;46.204;19.774;2023-05-21T04:58:20;100459.94;;;16.72;87.41
72961;BME280;61141;46.204;19.774;2023-05-21T05:01:23;100453.03;;;16.91;85.33
72961;BME280;61141;46.204;19.774;2023-05-21T05:04:28;100466.34;;;17.07;86.12
72961;BME280;61141;46.204;19.774;2023-05-21T05:07:31;100465.00;;;17.22;84.54
72961;BME280;61141;46.204;19.774;2023-05-21T05:10:34;100465.34;;;17.27;84.40
72961;BME280;61141;46.204;19.774;2023-05-21T05:13:40;100450.31;;;17.62;83.63
72961;BME280;61141;46.204;19.774;2023-05-21T05:16:43;100440.84;;;17.59;82.24
72961;BME280;61141;46.204;19.774;2023-05-21T05:19:50;100446.63;;;17.76;81.86
72961;BME280;61141;46.204;19.774;2023-05-21T05:22:52;100432.88;;;17.95;80.98
72961;BME280;61141;46.204;19.774;2023-05-21T05:25:55;100430.06;;;18.26;79.92
72961;BME280;61141;46.204;19.774;2023-05-21T05:28:58;100441.00;;;18.36;79.17
72961;BME280;61141;46.204;19.774;2023-05-21T05:32:01;100435.56;;;18.29;78.69
72961;BME280;61141;46.204;19.774;2023-05-21T05:35:04;100442.03;;;18.46;78.85
72961;BME280;61141;46.204;19.774;2023-05-21T05:38:08;100440.41;;;18.75;78.53
72961;BME280;61141;46.204;19.774;2023-05-21T05:41:11;100442.09;;;18.69;79.03
72961;BME280;61141;46.204;19.774;2023-05-21T05:44:14;100427.16;;;19.06;77.04
72961;BME280;61141;46.204;19.774;2023-05-21T05:47:19;100438.69;;;19.27;75.95
72961;BME280;61141;46.204;19.774;2023-05-21T05:50:24;100440.97;;;19.32;74.37
72961;BME280;61141;46.204;19.774;2023-05-21T05:53:27;100438.78;;;19.44;73.96
72961;BME280;61141;46.204;19.774;2023-05-21T05:56:31;100432.16;;;19.57;72.47
72961;BME280;61141;46.204;19.774;2023-05-21T05:59:33;100435.91;;;19.67;73.92
72961;BME280;61141;46.204;19.774;2023-05-21T06:02:37;100429.34;;;19.97;69.98
72961;BME280;61141;46.204;19.774;2023-05-21T06:05:40;100422.81;;;20.03;69.36
72961;BME280;61141;46.204;19.774;2023-05-21T06:08:43;100430.31;;;20.06;68.73
72961;BME280;61141;46.204;19.774;2023-05-21T06:11:47;100435.34;;;20.11;67.50
72961;BME280;61141;46.204;19.774;2023-05-21T06:14:49;100439.50;;;20.03;68.30
72961;BME280;61141;46.204;19.774;2023-05-21T06:17:53;100436.97;;;20.28;67.62
72961;BME280;61141;46.204;19.774;2023-05-21T06:20:57;100439.03;;;20.24;66.59
72961;BME280;61141;46.204;19.774;2023-05-21T06:24:01;100439.12;;;20.21;67.19
72961;BME280;61141;46.204;19.774;2023-05-21T06:27:04;100435.59;;;20.36;66.51
72961;BME280;61141;46.204;19.774;2023-05-21T06:30:07;100426.72;;;20.58;65.59
72961;BME280;61141;46.204;19.774;2023-05-21T06:33:10;100421.66;;;20.69;65.29
72961;BME280;61141;46.204;19.774;2023-05-21T06:36:14;100437.31;;;20.95;64.85
72961;BME280;61141;46.204;19.774;2023-05-21T06:39:18;100420.47;;;20.70;65.21
72961;BME280;61141;46.204;19.774;2023-05-21T06:42:21;100423.56;;;21.04;65.10
72961;BME280;61141;46.204;19.774;2023-05-21T06:45:26;100426.13;;;21.27;64.84
72961;BME280;61141;46.204;19.774;2023-05-21T06:48:31;100413.13;;;21.08;64.60
72961;BME280;61141;46.204;19.774;2023-05-21T06:51:34;100427.88;;;21.21;63.95
72961;BME280;61141;46.204;19.774;2023-05-21T06:54:37;100395.06;;;21.41;64.14
72961;BME280;61141;46.204;19.774;2023-05-21T06:57:40;100423.09;;;21.50;62.85
72961;BME280;61141;46.204;19.774;2023-05-21T07:00:43;100423.47;;;21.65;62.02
72961;BME280;61141;46.204;19.774;2023-05-21T07:03:46;100427.31;;;21.84;61.11
72961;BME280;61141;46.204;19.774;2023-05-21T07:06:49;100411.50;;;22.06;60.65
72961;BME280;61141;46.204;19.774;2023-05-21T07:09:53;100407.38;;;22.10;60.30
72961;BME280;61141;46.204;19.774;2023-05-21T07:12:56;100408.06;;;22.14;60.83
72961;BME280;61141;46.204;19.774;2023-05-21T07:15:59;100408.59;;;22.09;61.14
72961;BME280;61141;46.204;19.774;2023-05-21T07:19:02;100412.47;;;22.37;59.81
72961;BME280;61141;46.204;19.774;2023-05-21T07:22:05;100418.09;;;22.12;56.17
72961;BME280;61141;46.204;19.774;2023-05-21T07:25:09;100404.69;;;22.19;57.77
72961;BME280;61141;46.204;19.774;2023-05-21T07:28:12;100404.34;;;22.30;56.02
72961;BME280;61141;46.204;19.774;2023-05-21T07:31:15;100376.13;;;22.28;55.14
72961;BME280;61141;46.204;19.774;2023-05-21T07:34:19;100399.78;;;22.36;56.34
72961;BME280;61141;46.204;19.774;2023-05-21T07:37:22;100397.06;;;22.45;54.82
72961;BME280;61141;46.204;19.774;2023-05-21T07:40:26;100392.87;;;22.88;54.41
72961;BME280;61141;46.204;19.774;2023-05-21T07:43:30;100390.97;;;22.85;53.52
72961;BME280;61141;46.204;19.774;2023-05-21T07:46:33;100394.28;;;23.26;53.47
72961;BME280;61141;46.204;19.774;2023-05-21T07:49:37;100387.50;;;23.36;53.36
72961;BME280;61141;46.204;19.774;2023-05-21T07:52:40;100395.12;;;23.36;52.61
72961;BME280;61141;46.204;19.774;2023-05-21T07:55:43;100390.28;;;23.49;51.82
72961;BME280;61141;46.204;19.774;2023-05-21T07:58:50;100392.19;;;23.61;51.39
72961;BME280;61141;46.204;19.774;2023-05-21T08:01:54;100389.16;;;23.25;52.21
72961;BME280;61141;46.204;19.774;2023-05-21T08:04:57;100390.88;;;23.44;52.18
72961;BME280;61141;46.204;19.774;2023-05-21T08:08:00;100390.69;;;23.26;51.46
72961;BME280;61141;46.204;19.774;2023-05-21T08:11:03;100390.44;;;23.33;52.71
72961;BME280;61141;46.204;19.774;2023-05-21T08:14:08;100394.38;;;23.57;53.23
72961;BME280;61141;46.204;19.774;2023-05-21T08:17:12;100380.81;;;23.77;51.21
72961;BME280;61141;46.204;19.774;2023-05-21T08:20:15;100392.94;;;23.83;50.87
72961;BME280;61141;46.204;19.774;2023-05-21T08:23:18;100382.13;;;23.94;51.29
72961;BME280;61141;46.204;19.774;2023-05-21T08:26:22;100379.28;;;23.55;51.31
72961;BME280;61141;46.204;19.774;2023-05-21T08:29:25;100372.44;;;23.56;51.69
72961;BME280;61141;46.204;19.774;2023-05-21T08:32:28;100389.84;;;23.81;50.91
72961;BME280;61141;46.204;19.774;2023-05-21T08:35:32;100378.44;;;23.45;50.67
72961;BME280;61141;46.204;19.774;2023-05-21T08:38:35;100388.31;;;23.59;50.88
72961;BME280;61141;46.204;19.774;2023-05-21T08:41:42;100391.16;;;23.68;51.23
72961;BME280;61141;46.204;19.774;2023-05-21T08:44:53;100392.09;;;24.26;51.19
72961;BME280;61141;46.204;19.774;2023-05-21T08:47:58;100393.88;;;24.51;49.17
72961;BME280;61141;46.204;19.774;2023-05-21T08:51:01;100397.06;;;24.31;50.72
72961;BME280;61141;46.204;19.774;2023-05-21T08:54:06;100397.31;;;24.64;49.86
72961;BME280;61141;46.204;19.774;2023-05-21T08:57:11;100397.25;;;24.37;48.07
72961;BME280;61141;46.204;19.774;2023-05-21T09:00:15;100393.06;;;24.02;49.10
72961;BME280;61141;46.204;19.774;2023-05-21T09:03:18;100401.62;;;24.38;48.20
72961;BME280;61141;46.204;19.774;2023-05-21T09:06:24;100400.97;;;24.34;47.48
72961;BME280;61141;46.204;19.774;2023-05-21T09:09:32;100389.72;;;24.74;46.65
72961;BME280;61141;46.204;19.774;2023-05-21T09:12:36;100397.22;;;24.95;46.90
72961;BME280;61141;46.204;19.774;2023-05-21T09:15:39;100383.84;;;24.90;46.16
72961;BME280;61141;46.204;19.774;2023-05-21T09:18:44;100394.50;;;24.55;47.61
72961;BME280;61141;46.204;19.774;2023-05-21T09:21:50;100396.91;;;24.84;46.77
72961;BME280;61141;46.204;19.774;2023-05-21T09:24:53;100400.19;;;25.09;46.18
72961;BME280;61141;46.204;19.774;2023-05-21T09:27:56;100392.41;;;25.23;46.11
72961;BME280;61141;46.204;19.774;2023-05-21T09:31:02;100391.09;;;24.69;44.78
72961;BME280;61141;46.204;19.774;2023-05-21T09:34:04;100388.81;;;24.86;46.13
72961;BME280;61141;46.204;19.774;2023-05-21T09:37:07;100389.91;;;24.97;45.83
72961;BME280;61141;46.204;19.774;2023-05-21T09:40:28;100390.53;;;25.01;45.61
72961;BME280;61141;46.204;19.774;2023-05-21T09:43:31;100391.31;;;25.56;45.86
72961;BME280;61141;46.204;19.774;2023-05-21T09:46:38;100390.94;;;25.82;44.71
72961;BME280;61141;46.204;19.774;2023-05-21T09:49:42;100382.91;;;25.47;45.55
72961;BME280;61141;46.204;19.774;2023-05-21T09:52:46;100384.09;;;25.74;45.22
72961;BME280;61141;46.204;19.774;2023-05-21T09:55:56;100381.62;;;26.08;44.27
72961;BME280;61141;46.204;19.774;2023-05-21T09:59:02;100360.09;;;26.05;44.41
72961;BME280;61141;46.204;19.774;2023-05-21T10:02:16;100375.34;;;26.46;43.43
72961;BME280;61141;46.204;19.774;2023-05-21T10:05:25;100367.69;;;26.47;44.13
72961;BME280;61141;46.204;19.774;2023-05-21T10:08:30;100374.81;;;26.57;44.39
72961;BME280;61141;46.204;19.774;2023-05-21T10:11:38;100357.00;;;26.36;44.41
72961;BME280;61141;46.204;19.774;2023-05-21T10:14:44;100361.31;;;26.70;43.44
72961;BME280;61141;46.204;19.774;2023-05-21T10:17:48;100370.75;;;27.05;42.74
72961;BME280;61141;46.204;19.774;2023-05-21T10:20:52;100352.00;;;27.40;42.13
72961;BME280;61141;46.204;19.774;2023-05-21T10:23:56;100359.63;;;27.25;41.97
72961;BME280;61141;46.204;19.774;2023-05-21T10:27:00;100365.28;;;26.87;40.51
72961;BME280;61141;46.204;19.774;2023-05-21T10:30:05;100365.53;;;27.27;41.30
72961;BME280;61141;46.204;19.774;2023-05-21T10:33:07;100362.94;;;26.86;41.82
72961;BME280;61141;46.204;19.774;2023-05-21T10:36:11;100360.44;;;27.40;41.13
72961;BME280;61141;46.204;19.774;2023-05-21T10:39:17;100356.81;;;26.63;40.78
72961;BME280;61141;46.204;19.774;2023-05-21T10:56:03;100346.19;;;27.59;40.58
72961;BME280;61141;46.204;19.774;2023-05-21T10:59:39;100340.53;;;27.44;41.19
72961;BME280;61141;46.204;19.774;2023-05-21T11:02:43;100335.75;;;27.65;40.57
72961;BME280;61141;46.204;19.774;2023-05-21T11:05:52;100341.59;;;27.76;40.82
72961;BME280;61141;46.204;19.774;2023-05-21T11:08:56;100328.56;;;27.78;40.24
72961;BME280;61141;46.204;19.774;2023-05-21T11:12:03;100337.00;;;27.93;40.38
72961;BME280;61141;46.204;19.774;2023-05-21T11:15:07;100330.09;;;27.94;38.38
72961;BME280;61141;46.204;19.774;2023-05-21T11:18:12;100328.19;;;27.85;39.08
72961;BME280;61141;46.204;19.774;2023-05-21T11:21:21;100332.06;;;28.03;39.21
72961;BME280;61141;46.204;19.774;2023-05-21T11:24:31;100329.75;;;27.57;38.89
72961;BME280;61141;46.204;19.774;2023-05-21T11:27:36;100321.50;;;27.83;38.08
72961;BME280;61141;46.204;19.774;2023-05-21T11:30:39;100320.91;;;28.48;37.56
72961;BME280;61141;46.204;19.774;2023-05-21T11:33:42;100311.91;;;28.44;38.04
72961;BME280;61141;46.204;19.774;2023-05-21T11:36:48;100308.37;;;27.80;38.20
72961;BME280;61141;46.204;19.774;2023-05-21T11:39:52;100305.56;;;27.80;40.07
72961;BME280;61141;46.204;19.774;2023-05-21T11:42:55;100305.63;;;28.00;37.92
72961;BME280;61141;46.204;19.774;2023-05-21T11:45:58;100302.88;;;28.61;37.94
72961;BME280;61141;46.204;19.774;2023-05-21T11:49:02;100298.63;;;28.50;37.21
72961;BME280;61141;46.204;19.774;2023-05-21T11:52:08;100300.53;;;28.79;36.95
72961;BME280;61141;46.204;19.774;2023-05-21T11:55:11;100298.72;;;28.76;36.10
72961;BME280;61141;46.204;19.774;2023-05-21T11:58:17;100294.09;;;28.58;34.20
72961;BME280;61141;46.204;19.774;2023-05-21T12:01:23;100297.87;;;28.50;34.44
72961;BME280;61141;46.204;19.774;2023-05-21T12:04:30;100286.66;;;28.76;34.69
72961;BME280;61141;46.204;19.774;2023-05-21T12:07:34;100294.13;;;28.79;34.14
72961;BME280;61141;46.204;19.774;2023-05-21T12:10:37;100290.63;;;28.64;34.22
72961;BME280;61141;46.204;19.774;2023-05-21T12:13:41;100285.91;;;29.01;32.66
72961;BME280;61141;46.204;19.774;2023-05-21T12:16:44;100293.31;;;28.98;33.39
72961;BME280;61141;46.204;19.774;2023-05-21T12:19:48;100275.03;;;28.48;33.07
72961;BME280;61141;46.204;19.774;2023-05-21T12:22:52;100277.44;;;29.01;33.70
72961;BME280;61141;46.204;19.774;2023-05-21T12:25:55;100277.81;;;29.14;34.60
72961;BME280;61141;46.204;19.774;2023-05-21T12:28:59;100264.09;;;28.76;35.08
72961;BME280;61141;46.204;19.774;2023-05-21T12:32:03;100255.09;;;28.72;34.94
72961;BME280;61141;46.204;19.774;2023-05-21T12:35:07;100265.38;;;28.54;35.65
72961;BME280;61141;46.204;19.774;2023-05-21T12:38:10;100257.03;;;28.86;35.23
72961;BME280;61141;46.204;19.774;2023-05-21T12:41:13;100253.19;;;28.89;33.73
72961;BME280;61141;46.204;19.774;2023-05-21T12:44:15;100244.41;;;28.81;33.13
72961;BME280;61141;46.204;19.774;2023-05-21T12:47:22;100243.25;;;29.50;32.46
72961;BME280;61141;46.204;19.774;2023-05-21T12:50:25;100231.34;;;29.09;33.49
72961;BME280;61141;46.204;19.774;2023-05-21T12:53:40;100227.91;;;29.57;32.67
72961;BME280;61141;46.204;19.774;2023-05-21T12:56:44;100222.19;;;29.20;33.43
72961;BME280;61141;46.204;19.774;2023-05-21T12:59:54;100224.84;;;29.60;33.05
72961;BME280;61141;46.204;19.774;2023-05-21T13:03:02;100217.59;;;28.45;33.47
72961;BME280;61141;46.204;19.774;2023-05-21T13:06:07;100215.78;;;28.22;35.24
72961;BME280;61141;46.204;19.774;2023-05-21T13:09:10;100216.97;;;28.36;34.37
72961;BME280;61141;46.204;19.774;2023-05-21T13:12:13;100213.59;;;28.78;33.23
72961;BME280;61141;46.204;19.774;2023-05-21T13:15:16;100215.62;;;29.03;32.75
72961;BME280;61141;46.204;19.774;2023-05-21T13:18:19;100215.88;;;28.99;32.34
72961;BME280;61141;46.204;19.774;2023-05-21T13:21:22;100217.72;;;28.56;32.91
72961;BME280;61141;46.204;19.774;2023-05-21T13:24:25;100219.59;;;29.42;30.46
72961;BME280;61141;46.204;19.774;2023-05-21T13:27:28;100206.66;;;29.67;29.53
72961;BME280;61141;46.204;19.774;2023-05-21T13:30:31;100208.34;;;29.85;30.06
72961;BME280;61141;46.204;19.774;2023-05-21T13:33:37;100218.81;;;29.10;31.08
72961;BME280;61141;46.204;19.774;2023-05-21T13:36:40;100212.94;;;29.45;30.99
72961;BME280;61141;46.204;19.774;2023-05-21T13:39:43;100205.25;;;29.20;31.35
72961;BME280;61141;46.204;19.774;2023-05-21T13:42:47;100212.12;;;29.08;30.74
72961;BME280;61141;46.204;19.774;2023-05-21T13:45:50;100209.19;;;29.59;29.08
72961;BME280;61141;46.204;19.774;2023-05-21T13:48:54;100205.34;;;29.62;28.14
72961;BME280;61141;46.204;19.774;2023-05-21T13:51:57;100205.72;;;29.44;28.91
72961;BME280;61141;46.204;19.774;2023-05-21T13:55:00;100205.66;;;29.33;29.09
72961;BME280;61141;46.204;19.774;2023-05-21T13:58:02;100195.66;;;29.75;28.78
72961;BME280;61141;46.204;19.774;2023-05-21T14:01:05;100191.69;;;28.93;29.14
72961;BME280;61141;46.204;19.774;2023-05-21T14:04:09;100194.25;;;29.53;28.84
72961;BME280;61141;46.204;19.774;2023-05-21T14:07:11;100185.03;;;29.58;28.06
72961;BME280;61141;46.204;19.774;2023-05-21T14:10:14;100184.78;;;29.56;28.22
72961;BME280;61141;46.204;19.774;2023-05-21T14:13:17;100195.63;;;29.01;28.68
72961;BME280;61141;46.204;19.774;2023-05-21T14:16:21;100184.31;;;29.27;28.73
72961;BME280;61141;46.204;19.774;2023-05-21T14:19:27;100176.78;;;29.18;29.32
72961;BME280;61141;46.204;19.774;2023-05-21T14:22:34;100180.41;;;30.03;29.14
72961;BME280;61141;46.204;19.774;2023-05-21T14:25:37;100180.75;;;29.68;29.36
72961;BME280;61141;46.204;19.774;2023-05-21T14:28:43;100180.28;;;29.39;30.05
72961;BME280;61141;46.204;19.774;2023-05-21T14:31:46;100176.56;;;29.58;30.47
72961;BME280;61141;46.204;19.774;2023-05-21T14:34:50;100174.03;;;29.60;30.71
72961;BME280;61141;46.204;19.774;2023-05-21T14:37:52;100175.44;;;29.45;30.97
72961;BME280;61141;46.204;19.774;2023-05-21T14:40:55;100179.56;;;29.12;31.18
72961;BME280;61141;46.204;19.774;2023-05-21T14:43:58;100171.28;;;28.52;30.71
72961;BME280;61141;46.204;19.774;2023-05-21T14:47:01;100166.69;;;29.37;30.59
72961;BME280;61141;46.204;19.774;2023-05-21T14:50:04;100169.66;;;29.23;31.40
72961;BME280;61141;46.204;19.774;2023-05-21T14:53:10;100173.34;;;29.34;31.42
72961;BME280;61141;46.204;19.774;2023-05-21T14:56:13;100152.97;;;29.61;30.58
72961;BME280;61141;46.204;19.774;2023-05-21T14:59:16;100155.78;;;30.09;30.20
72961;BME280;61141;46.204;19.774;2023-05-21T15:02:19;100157.25;;;29.94;30.72
72961;BME280;61141;46.204;19.774;2023-05-21T15:05:22;100156.09;;;30.28;30.28
72961;BME280;61141;46.204;19.774;2023-05-21T15:08:25;100154.75;;;29.22;30.22
72961;BME280;61141;46.204;19.774;2023-05-21T15:11:28;100153.69;;;28.37;32.10
72961;BME280;61141;46.204;19.774;2023-05-21T15:14:31;100149.75;;;28.03;34.01
72961;BME280;61141;46.204;19.774;2023-05-21T15:17:34;100153.94;;;28.13;34.26
72961;BME280;61141;46.204;19.774;2023-05-21T15:20:37;100145.28;;;28.17;34.36
72961;BME280;61141;46.204;19.774;2023-05-21T15:23:40;100156.88;;;27.84;35.53
72961;BME280;61141;46.204;19.774;2023-05-21T15:26:43;100155.66;;;27.50;36.90
72961;BME280;61141;46.204;19.774;2023-05-21T15:29:46;100174.44;;;27.09;36.88
72961;BME280;61141;46.204;19.774;2023-05-21T15:32:48;100190.59;;;26.56;37.07
72961;BME280;61141;46.204;19.774;2023-05-21T15:35:52;100185.75;;;26.56;36.84
72961;BME280;61141;46.204;19.774;2023-05-21T15:38:54;100198.38;;;26.75;36.57
72961;BME280;61141;46.204;19.774;2023-05-21T15:41:57;100189.00;;;26.78;37.07
72961;BME280;61141;46.204;19.774;2023-05-21T15:45:00;100190.41;;;26.45;36.97
72961;BME280;61141;46.204;19.774;2023-05-21T15:48:03;100198.19;;;26.79;36.62
72961;BME280;61141;46.204;19.774;2023-05-21T15:51:06;100191.44;;;27.00;36.87
72961;BME280;61141;46.204;19.774;2023-05-21T15:54:09;100201.00;;;26.94;37.38
72961;BME280;61141;46.204;19.774;2023-05-21T15:57:12;100219.72;;;27.40;36.90
72961;BME280;61141;46.204;19.774;2023-05-21T16:00:15;100209.69;;;27.54;36.45